sensor_id;sensor_type;location;lat;lon;timestamp;P1;durP1;ratioP1;P2;durP2;ratioP2
3487;SDS011;38546;48.170;11.724;2023-09-30T00:00:25;23.33;;;9.97;;
3487;SDS011;38546;48.170;11.724;2023-09-30T00:03:15;24.93;;;9.40;;
3487;SDS011;38546;48.170;11.724;2023-09-30T00:06:04;23.43;;;9.87;;
3487;SDS011;38546;48.170;11.724;2023-09-30T00:08:53;24.90;;;9.30;;
3487;SDS011;38546;48.170;11.724;2023-09-30T00:11:43;26.43;;;11.03;;
3487;SDS011;38546;48.170;11.724;2023-09-30T00:14:32;24.40;;;10.43;;
3487;SDS011;38546;48.170;11.724;2023-09-30T00:17:21;22.23;;;10.30;;
3487;SDS011;38546;48.170;11.724;2023-09-30T00:20:10;26.10;;;10.53;;
3487;SDS011;38546;48.170;11.724;2023-09-30T00:23:00;31.07;;;10.30;;
3487;SDS011;38546;48.170;11.724;2023-09-30T00:25:49;24.97;;;9.73;;
3487;SDS011;38546;48.170;11.724;2023-09-30T00:28:39;22.33;;;10.67;;
3487;SDS011;38546;48.170;11.724;2023-09-30T00:31:28;21.87;;;9.23;;
3487;SDS011;38546;48.170;11.724;2023-09-30T00:34:17;39.73;;;11.87;;
3487;SDS011;38546;48.170;11.724;2023-09-30T00:37:07;27.77;;;11.37;;
3487;SDS011;38546;48.170;11.724;2023-09-30T00:39:56;28.60;;;12.10;;
3487;SDS011;38546;48.170;11.724;2023-09-30T00:42:45;25.40;;;11.07;;
3487;SDS011;38546;48.170;11.724;2023-09-30T00:45:35;25.33;;;11.37;;
3487;SDS011;38546;48.170;11.724;2023-09-30T00:48:27;26.07;;;11.20;;
3487;SDS011;38546;48.170;11.724;2023-09-30T00:51:16;24.47;;;10.20;;
3487;SDS011;38546;48.170;11.724;2023-09-30T00:54:06;28.73;;;12.40;;
3487;SDS011;38546;48.170;11.724;2023-09-30T00:56:57;22.90;;;11.17;;
3487;SDS011;38546;48.170;11.724;2023-09-30T00:59:50;29.90;;;12.57;;
3487;SDS011;38546;48.170;11.724;2023-09-30T01:02:40;26.30;;;10.40;;
3487;SDS011;38546;48.170;11.724;2023-09-30T01:05:30;26.97;;;10.73;;
3487;SDS011;38546;48.170;11.724;2023-09-30T01:08:20;28.73;;;11.00;;
3487;SDS011;38546;48.170;11.724;2023-09-30T01:11:10;21.27;;;9.40;;
3487;SDS011;38546;48.170;11.724;2023-09-30T01:14:00;24.40;;;10.23;;
3487;SDS011;38546;48.170;11.724;2023-09-30T01:16:49;25.53;;;11.97;;
3487;SDS011;38546;48.170;11.724;2023-09-30T01:19:39;25.80;;;11.37;;
3487;SDS011;38546;48.170;11.724;2023-09-30T01:22:31;28.30;;;10.67;;
3487;SDS011;38546;48.170;11.724;2023-09-30T01:25:21;25.93;;;11.67;;
3487;SDS011;38546;48.170;11.724;2023-09-30T01:28:10;23.63;;;10.37;;
3487;SDS011;38546;48.170;11.724;2023-09-30T01:31:00;24.27;;;11.07;;
3487;SDS011;38546;48.170;11.724;2023-09-30T01:33:50;27.57;;;11.87;;
3487;SDS011;38546;48.170;11.724;2023-09-30T01:36:43;19.67;;;9.30;;
3487;SDS011;38546;48.170;11.724;2023-09-30T01:39:33;22.23;;;11.00;;
3487;SDS011;38546;48.170;11.724;2023-09-30T01:42:22;27.70;;;10.97;;
3487;SDS011;38546;48.170;11.724;2023-09-30T01:45:12;23.00;;;10.40;;
3487;SDS011;38546;48.170;11.724;2023-09-30T01:48:02;26.87;;;10.90;;
3487;SDS011;38546;48.170;11.724;2023-09-30T01:50:52;25.13;;;12.33;;
3487;SDS011;38546;48.170;11.724;2023-09-30T01:53:41;23.20;;;9.87;;
3487;SDS011;38546;48.170;11.724;2023-09-30T01:56:31;24.03;;;10.50;;
3487;SDS011;38546;48.170;11.724;2023-09-30T01:59:20;25.70;;;10.60;;
3487;SDS011;38546;48.170;11.724;2023-09-30T02:02:10;23.93;;;10.60;;
3487;SDS011;38546;48.170;11.724;2023-09-30T02:05:00;27.13;;;11.93;;
3487;SDS011;38546;48.170;11.724;2023-09-30T02:07:49;23.23;;;10.27;;
3487;SDS011;38546;48.170;11.724;2023-09-30T02:10:39;30.00;;;10.60;;
3487;SDS011;38546;48.170;11.724;2023-09-30T02:13:31;25.30;;;10.33;;
3487;SDS011;38546;48.170;11.724;2023-09-30T02:16:26;25.47;;;10.97;;
3487;SDS011;38546;48.170;11.724;2023-09-30T02:19:15;25.20;;;10.60;;
3487;SDS011;38546;48.170;11.724;2023-09-30T02:22:04;23.73;;;10.23;;
3487;SDS011;38546;48.170;11.724;2023-09-30T02:24:54;24.33;;;10.97;;
3487;SDS011;38546;48.170;11.724;2023-09-30T02:27:43;25.33;;;11.03;;
3487;SDS011;38546;48.170;11.724;2023-09-30T02:30:33;25.37;;;10.60;;
3487;SDS011;38546;48.170;11.724;2023-09-30T02:33:22;26.40;;;10.97;;
3487;SDS011;38546;48.170;11.724;2023-09-30T02:36:11;21.83;;;9.00;;
3487;SDS011;38546;48.170;11.724;2023-09-30T02:39:02;25.60;;;10.43;;
3487;SDS011;38546;48.170;11.724;2023-09-30T02:41:51;21.80;;;10.77;;
3487;SDS011;38546;48.170;11.724;2023-09-30T02:44:41;30.90;;;11.17;;
3487;SDS011;38546;48.170;11.724;2023-09-30T02:47:31;25.77;;;10.00;;
3487;SDS011;38546;48.170;11.724;2023-09-30T02:50:21;24.87;;;9.67;;
3487;SDS011;38546;48.170;11.724;2023-09-30T02:53:10;21.00;;;9.27;;
3487;SDS011;38546;48.170;11.724;2023-09-30T02:56:02;22.70;;;10.27;;
3487;SDS011;38546;48.170;11.724;2023-09-30T02:58:53;28.10;;;10.23;;
3487;SDS011;38546;48.170;11.724;2023-09-30T03:01:42;28.57;;;11.03;;
3487;SDS011;38546;48.170;11.724;2023-09-30T03:04:31;30.57;;;11.97;;
3487;SDS011;38546;48.170;11.724;2023-09-30T03:07:21;24.10;;;11.30;;
3487;SDS011;38546;48.170;11.724;2023-09-30T03:10:11;25.50;;;11.07;;
3487;SDS011;38546;48.170;11.724;2023-09-30T03:13:03;28.53;;;11.67;;
3487;SDS011;38546;48.170;11.724;2023-09-30T03:15:52;28.17;;;11.63;;
3487;SDS011;38546;48.170;11.724;2023-09-30T03:18:42;27.73;;;11.77;;
3487;SDS011;38546;48.170;11.724;2023-09-30T03:21:33;27.20;;;13.10;;
3487;SDS011;38546;48.170;11.724;2023-09-30T03:24:26;23.13;;;11.17;;
3487;SDS011;38546;48.170;11.724;2023-09-30T03:27:15;26.60;;;11.27;;
3487;SDS011;38546;48.170;11.724;2023-09-30T03:30:06;24.17;;;11.37;;
3487;SDS011;38546;48.170;11.724;2023-09-30T03:32:57;31.83;;;12.63;;
3487;SDS011;38546;48.170;11.724;2023-09-30T03:35:46;32.27;;;13.47;;
3487;SDS011;38546;48.170;11.724;2023-09-30T03:38:35;29.63;;;11.10;;
3487;SDS011;38546;48.170;11.724;2023-09-30T03:41:25;27.97;;;11.63;;
3487;SDS011;38546;48.170;11.724;2023-09-30T03:44:14;25.53;;;10.97;;
3487;SDS011;38546;48.170;11.724;2023-09-30T03:47:04;30.50;;;11.07;;
3487;SDS011;38546;48.170;11.724;2023-09-30T03:49:53;37.10;;;14.00;;
3487;SDS011;38546;48.170;11.724;2023-09-30T03:52:43;24.13;;;11.10;;
3487;SDS011;38546;48.170;11.724;2023-09-30T03:55:33;26.07;;;11.27;;
3487;SDS011;38546;48.170;11.724;2023-09-30T03:58:23;35.37;;;11.80;;
3487;SDS011;38546;48.170;11.724;2023-09-30T04:01:12;22.30;;;10.43;;
3487;SDS011;38546;48.170;11.724;2023-09-30T04:04:02;27.27;;;10.83;;
3487;SDS011;38546;48.170;11.724;2023-09-30T04:06:53;26.80;;;11.50;;
3487;SDS011;38546;48.170;11.724;2023-09-30T04:09:42;26.93;;;11.10;;
3487;SDS011;38546;48.170;11.724;2023-09-30T04:12:31;33.53;;;11.70;;
3487;SDS011;38546;48.170;11.724;2023-09-30T04:15:21;25.20;;;11.60;;
3487;SDS011;38546;48.170;11.724;2023-09-30T04:18:11;25.17;;;11.00;;
3487;SDS011;38546;48.170;11.724;2023-09-30T04:21:00;30.57;;;11.50;;
3487;SDS011;38546;48.170;11.724;2023-09-30T04:23:53;25.67;;;12.07;;
3487;SDS011;38546;48.170;11.724;2023-09-30T04:26:42;19.77;;;8.87;;
3487;SDS011;38546;48.170;11.724;2023-09-30T04:29:31;17.10;;;8.90;;
3487;SDS011;38546;48.170;11.724;2023-09-30T04:32:20;24.53;;;10.80;;
3487;SDS011;38546;48.170;11.724;2023-09-30T04:35:10;22.20;;;10.17;;
3487;SDS011;38546;48.170;11.724;2023-09-30T04:37:59;24.37;;;11.50;;
3487;SDS011;38546;48.170;11.724;2023-09-30T04:40:53;23.00;;;8.87;;
3487;SDS011;38546;48.170;11.724;2023-09-30T04:43:42;29.93;;;11.70;;
3487;SDS011;38546;48.170;11.724;2023-09-30T04:46:31;25.67;;;10.37;;
3487;SDS011;38546;48.170;11.724;2023-09-30T04:49:21;23.60;;;9.43;;
3487;SDS011;38546;48.170;11.724;2023-09-30T04:52:12;20.40;;;11.00;;
3487;SDS011;38546;48.170;11.724;2023-09-30T04:55:01;27.23;;;10.33;;
3487;SDS011;38546;48.170;11.724;2023-09-30T04:57:53;25.10;;;10.30;;
3487;SDS011;38546;48.170;11.724;2023-09-30T05:00:42;24.07;;;10.60;;
3487;SDS011;38546;48.170;11.724;2023-09-30T05:03:31;18.90;;;10.17;;
3487;SDS011;38546;48.170;11.724;2023-09-30T05:06:20;21.80;;;8.83;;
3487;SDS011;38546;48.170;11.724;2023-09-30T05:09:09;20.67;;;8.97;;
3487;SDS011;38546;48.170;11.724;2023-09-30T05:11:59;28.80;;;10.33;;
3487;SDS011;38546;48.170;11.724;2023-09-30T05:14:48;22.43;;;8.70;;
3487;SDS011;38546;48.170;11.724;2023-09-30T05:17:38;24.60;;;10.30;;
3487;SDS011;38546;48.170;11.724;2023-09-30T05:20:27;23.90;;;10.80;;
3487;SDS011;38546;48.170;11.724;2023-09-30T05:23:17;23.03;;;10.27;;
3487;SDS011;38546;48.170;11.724;2023-09-30T05:26:06;28.17;;;11.53;;
3487;SDS011;38546;48.170;11.724;2023-09-30T05:28:56;25.43;;;11.70;;
3487;SDS011;38546;48.170;11.724;2023-09-30T05:31:45;34.70;;;11.37;;
3487;SDS011;38546;48.170;11.724;2023-09-30T05:34:34;21.20;;;11.13;;
3487;SDS011;38546;48.170;11.724;2023-09-30T05:37:24;22.47;;;10.80;;
3487;SDS011;38546;48.170;11.724;2023-09-30T05:40:15;21.93;;;9.80;;
3487;SDS011;38546;48.170;11.724;2023-09-30T05:43:19;23.03;;;10.50;;
3487;SDS011;38546;48.170;11.724;2023-09-30T05:46:08;22.33;;;11.23;;
3487;SDS011;38546;48.170;11.724;2023-09-30T05:48:58;22.10;;;9.30;;
3487;SDS011;38546;48.170;11.724;2023-09-30T05:51:47;21.20;;;10.40;;
3487;SDS011;38546;48.170;11.724;2023-09-30T05:54:36;28.03;;;11.27;;
3487;SDS011;38546;48.170;11.724;2023-09-30T05:57:27;26.40;;;10.33;;
3487;SDS011;38546;48.170;11.724;2023-09-30T06:00:17;27.63;;;10.63;;
3487;SDS011;38546;48.170;11.724;2023-09-30T06:03:11;20.93;;;9.83;;
3487;SDS011;38546;48.170;11.724;2023-09-30T06:06:01;20.57;;;10.33;;
3487;SDS011;38546;48.170;11.724;2023-09-30T06:08:51;25.30;;;10.97;;
3487;SDS011;38546;48.170;11.724;2023-09-30T06:11:41;22.80;;;9.70;;
3487;SDS011;38546;48.170;11.724;2023-09-30T06:14:31;28.57;;;11.47;;
3487;SDS011;38546;48.170;11.724;2023-09-30T06:17:21;26.63;;;11.60;;
3487;SDS011;38546;48.170;11.724;2023-09-30T06:20:11;27.67;;;11.70;;
3487;SDS011;38546;48.170;11.724;2023-09-30T06:23:04;26.83;;;11.83;;
3487;SDS011;38546;48.170;11.724;2023-09-30T06:25:53;22.70;;;10.80;;
3487;SDS011;38546;48.170;11.724;2023-09-30T06:28:42;28.03;;;11.10;;
3487;SDS011;38546;48.170;11.724;2023-09-30T06:31:31;23.67;;;10.30;;
3487;SDS011;38546;48.170;11.724;2023-09-30T06:34:22;24.97;;;10.30;;
3487;SDS011;38546;48.170;11.724;2023-09-30T06:37:11;28.00;;;10.33;;
3487;SDS011;38546;48.170;11.724;2023-09-30T06:40:00;29.00;;;9.80;;
3487;SDS011;38546;48.170;11.724;2023-09-30T06:42:52;22.60;;;10.07;;
3487;SDS011;38546;48.170;11.724;2023-09-30T06:45:42;24.27;;;8.67;;
3487;SDS011;38546;48.170;11.724;2023-09-30T06:48:33;30.00;;;9.30;;
3487;SDS011;38546;48.170;11.724;2023-09-30T06:51:22;23.97;;;9.20;;
3487;SDS011;38546;48.170;11.724;2023-09-30T06:54:10;25.07;;;9.20;;
3487;SDS011;38546;48.170;11.724;2023-09-30T06:57:00;18.30;;;8.53;;
3487;SDS011;38546;48.170;11.724;2023-09-30T06:59:49;23.93;;;10.03;;
3487;SDS011;38546;48.170;11.724;2023-09-30T07:02:38;29.03;;;10.10;;
3487;SDS011;38546;48.170;11.724;2023-09-30T07:05:29;19.60;;;8.20;;
3487;SDS011;38546;48.170;11.724;2023-09-30T07:08:18;23.20;;;8.73;;
3487;SDS011;38546;48.170;11.724;2023-09-30T07:11:09;16.70;;;8.63;;
3487;SDS011;38546;48.170;11.724;2023-09-30T07:13:59;22.33;;;8.77;;
3487;SDS011;38546;48.170;11.724;2023-09-30T07:16:49;29.67;;;7.83;;
3487;SDS011;38546;48.170;11.724;2023-09-30T07:19:38;22.60;;;7.83;;
3487;SDS011;38546;48.170;11.724;2023-09-30T07:22:26;14.57;;;7.50;;
3487;SDS011;38546;48.170;11.724;2023-09-30T07:25:15;12.67;;;6.50;;
3487;SDS011;38546;48.170;11.724;2023-09-30T07:28:05;15.10;;;6.70;;
3487;SDS011;38546;48.170;11.724;2023-09-30T07:31:00;13.70;;;5.80;;
3487;SDS011;38546;48.170;11.724;2023-09-30T07:33:48;15.63;;;6.97;;
3487;SDS011;38546;48.170;11.724;2023-09-30T07:36:38;12.60;;;6.70;;
3487;SDS011;38546;48.170;11.724;2023-09-30T07:39:27;11.57;;;6.20;;
3487;SDS011;38546;48.170;11.724;2023-09-30T07:42:18;10.37;;;6.13;;
3487;SDS011;38546;48.170;11.724;2023-09-30T07:45:07;14.47;;;7.53;;
3487;SDS011;38546;48.170;11.724;2023-09-30T07:47:58;11.77;;;6.60;;
3487;SDS011;38546;48.170;11.724;2023-09-30T07:50:47;12.63;;;6.30;;
3487;SDS011;38546;48.170;11.724;2023-09-30T07:53:37;12.23;;;6.10;;
3487;SDS011;38546;48.170;11.724;2023-09-30T07:56:26;14.93;;;6.23;;
3487;SDS011;38546;48.170;11.724;2023-09-30T07:59:15;13.00;;;5.97;;
3487;SDS011;38546;48.170;11.724;2023-09-30T08:02:04;16.23;;;5.97;;
3487;SDS011;38546;48.170;11.724;2023-09-30T08:04:55;15.60;;;6.47;;
3487;SDS011;38546;48.170;11.724;2023-09-30T08:07:44;13.43;;;5.93;;
3487;SDS011;38546;48.170;11.724;2023-09-30T08:10:35;11.10;;;5.80;;
3487;SDS011;38546;48.170;11.724;2023-09-30T08:13:25;15.37;;;6.17;;
3487;SDS011;38546;48.170;11.724;2023-09-30T08:16:14;14.40;;;6.87;;
3487;SDS011;38546;48.170;11.724;2023-09-30T08:19:03;11.80;;;5.67;;
3487;SDS011;38546;48.170;11.724;2023-09-30T08:21:53;12.33;;;5.97;;
3487;SDS011;38546;48.170;11.724;2023-09-30T08:24:43;19.00;;;6.50;;
3487;SDS011;38546;48.170;11.724;2023-09-30T08:27:33;15.13;;;6.83;;
3487;SDS011;38546;48.170;11.724;2023-09-30T08:30:23;13.70;;;5.80;;
3487;SDS011;38546;48.170;11.724;2023-09-30T08:33:12;18.07;;;7.57;;
3487;SDS011;38546;48.170;11.724;2023-09-30T08:36:02;12.40;;;6.93;;
3487;SDS011;38546;48.170;11.724;2023-09-30T08:38:55;15.37;;;7.27;;
3487;SDS011;38546;48.170;11.724;2023-09-30T08:41:44;9.53;;;5.97;;
3487;SDS011;38546;48.170;11.724;2023-09-30T08:44:34;11.60;;;6.57;;
3487;SDS011;38546;48.170;11.724;2023-09-30T08:47:26;14.90;;;7.20;;
3487;SDS011;38546;48.170;11.724;2023-09-30T08:50:17;15.50;;;6.30;;
3487;SDS011;38546;48.170;11.724;2023-09-30T08:53:07;15.20;;;7.50;;
3487;SDS011;38546;48.170;11.724;2023-09-30T08:56:00;11.80;;;6.30;;
3487;SDS011;38546;48.170;11.724;2023-09-30T08:58:58;11.43;;;5.43;;
3487;SDS011;38546;48.170;11.724;2023-09-30T09:01:49;15.40;;;7.13;;
3487;SDS011;38546;48.170;11.724;2023-09-30T09:04:38;16.20;;;7.00;;
3487;SDS011;38546;48.170;11.724;2023-09-30T09:07:28;15.03;;;7.03;;
3487;SDS011;38546;48.170;11.724;2023-09-30T09:10:19;12.70;;;6.50;;
3487;SDS011;38546;48.170;11.724;2023-09-30T09:13:08;11.13;;;6.10;;
3487;SDS011;38546;48.170;11.724;2023-09-30T09:16:09;10.23;;;5.80;;
3487;SDS011;38546;48.170;11.724;2023-09-30T09:18:59;10.87;;;6.67;;
3487;SDS011;38546;48.170;11.724;2023-09-30T09:22:03;17.10;;;6.23;;
3487;SDS011;38546;48.170;11.724;2023-09-30T09:24:55;15.90;;;6.40;;
3487;SDS011;38546;48.170;11.724;2023-09-30T09:27:49;15.47;;;6.50;;
3487;SDS011;38546;48.170;11.724;2023-09-30T09:30:39;13.37;;;6.47;;
3487;SDS011;38546;48.170;11.724;2023-09-30T09:33:36;9.37;;;5.80;;
3487;SDS011;38546;48.170;11.724;2023-09-30T09:36:39;12.30;;;5.40;;
3487;SDS011;38546;48.170;11.724;2023-09-30T09:39:30;18.63;;;6.60;;
3487;SDS011;38546;48.170;11.724;2023-09-30T09:42:32;12.30;;;6.30;;
3487;SDS011;38546;48.170;11.724;2023-09-30T09:45:24;17.17;;;6.73;;
3487;SDS011;38546;48.170;11.724;2023-09-30T09:48:15;13.67;;;6.30;;
3487;SDS011;38546;48.170;11.724;2023-09-30T09:51:05;13.90;;;6.00;;
3487;SDS011;38546;48.170;11.724;2023-09-30T09:53:58;13.10;;;6.20;;
3487;SDS011;38546;48.170;11.724;2023-09-30T09:56:48;11.90;;;5.80;;
3487;SDS011;38546;48.170;11.724;2023-09-30T09:59:42;10.47;;;5.17;;
3487;SDS011;38546;48.170;11.724;2023-09-30T10:02:36;12.57;;;6.13;;
3487;SDS011;38546;48.170;11.724;2023-09-30T10:05:27;9.17;;;4.83;;
3487;SDS011;38546;48.170;11.724;2023-09-30T10:08:18;10.53;;;5.90;;
3487;SDS011;38546;48.170;11.724;2023-09-30T10:11:18;12.27;;;5.53;;
3487;SDS011;38546;48.170;11.724;2023-09-30T10:14:07;10.20;;;4.93;;
3487;SDS011;38546;48.170;11.724;2023-09-30T10:17:03;12.27;;;5.73;;
3487;SDS011;38546;48.170;11.724;2023-09-30T10:20:05;6.80;;;4.20;;
3487;SDS011;38546;48.170;11.724;2023-09-30T10:26:16;8.30;;;4.77;;
3487;SDS011;38546;48.170;11.724;2023-09-30T10:29:08;9.87;;;5.07;;
3487;SDS011;38546;48.170;11.724;2023-09-30T10:31:58;10.37;;;4.87;;
3487;SDS011;38546;48.170;11.724;2023-09-30T10:34:47;8.27;;;4.83;;
3487;SDS011;38546;48.170;11.724;2023-09-30T10:37:39;8.00;;;3.90;;
3487;SDS011;38546;48.170;11.724;2023-09-30T10:40:29;8.73;;;4.53;;
3487;SDS011;38546;48.170;11.724;2023-09-30T10:43:29;9.60;;;4.03;;
3487;SDS011;38546;48.170;11.724;2023-09-30T10:46:29;6.13;;;4.13;;
3487;SDS011;38546;48.170;11.724;2023-09-30T10:52:27;6.90;;;4.70;;
3487;SDS011;38546;48.170;11.724;2023-09-30T10:55:18;5.93;;;3.23;;
3487;SDS011;38546;48.170;11.724;2023-09-30T10:58:08;7.20;;;4.10;;
3487;SDS011;38546;48.170;11.724;2023-09-30T11:00:58;7.17;;;4.50;;
3487;SDS011;38546;48.170;11.724;2023-09-30T11:03:47;9.33;;;3.67;;
3487;SDS011;38546;48.170;11.724;2023-09-30T11:06:42;6.80;;;3.93;;
3487;SDS011;38546;48.170;11.724;2023-09-30T11:09:31;11.30;;;5.07;;
3487;SDS011;38546;48.170;11.724;2023-09-30T11:12:22;9.90;;;5.00;;
3487;SDS011;38546;48.170;11.724;2023-09-30T11:15:12;8.30;;;4.50;;
3487;SDS011;38546;48.170;11.724;2023-09-30T11:18:12;7.93;;;4.10;;
3487;SDS011;38546;48.170;11.724;2023-09-30T11:21:10;7.70;;;4.40;;
3487;SDS011;38546;48.170;11.724;2023-09-30T11:24:01;8.93;;;4.93;;
3487;SDS011;38546;48.170;11.724;2023-09-30T11:26:54;9.87;;;5.87;;
3487;SDS011;38546;48.170;11.724;2023-09-30T11:29:50;12.07;;;5.40;;
3487;SDS011;38546;48.170;11.724;2023-09-30T11:32:41;11.70;;;4.80;;
3487;SDS011;38546;48.170;11.724;2023-09-30T11:35:31;10.87;;;5.57;;
3487;SDS011;38546;48.170;11.724;2023-09-30T11:38:20;8.43;;;5.13;;
3487;SDS011;38546;48.170;11.724;2023-09-30T11:41:10;10.57;;;4.90;;
3487;SDS011;38546;48.170;11.724;2023-09-30T11:44:09;13.27;;;5.83;;
3487;SDS011;38546;48.170;11.724;2023-09-30T11:47:01;9.13;;;4.80;;
3487;SDS011;38546;48.170;11.724;2023-09-30T11:49:53;14.30;;;5.47;;
3487;SDS011;38546;48.170;11.724;2023-09-30T11:52:46;7.23;;;5.40;;
3487;SDS011;38546;48.170;11.724;2023-09-30T11:55:36;9.57;;;5.60;;
3487;SDS011;38546;48.170;11.724;2023-09-30T11:58:26;12.50;;;5.50;;
3487;SDS011;38546;48.170;11.724;2023-09-30T12:01:15;13.70;;;6.47;;
3487;SDS011;38546;48.170;11.724;2023-09-30T12:04:05;15.00;;;6.60;;
3487;SDS011;38546;48.170;11.724;2023-09-30T12:06:55;11.07;;;6.00;;
3487;SDS011;38546;48.170;11.724;2023-09-30T12:09:45;8.53;;;5.20;;
3487;SDS011;38546;48.170;11.724;2023-09-30T12:12:34;20.53;;;8.90;;
3487;SDS011;38546;48.170;11.724;2023-09-30T12:15:23;15.20;;;7.93;;
3487;SDS011;38546;48.170;11.724;2023-09-30T12:18:13;18.83;;;7.80;;
3487;SDS011;38546;48.170;11.724;2023-09-30T12:21:06;14.17;;;7.27;;
3487;SDS011;38546;48.170;11.724;2023-09-30T12:23:57;18.80;;;7.30;;
3487;SDS011;38546;48.170;11.724;2023-09-30T12:26:48;14.53;;;7.37;;
3487;SDS011;38546;48.170;11.724;2023-09-30T12:29:40;13.67;;;5.63;;
3487;SDS011;38546;48.170;11.724;2023-09-30T12:32:29;12.23;;;6.30;;
3487;SDS011;38546;48.170;11.724;2023-09-30T12:35:19;12.73;;;6.37;;
3487;SDS011;38546;48.170;11.724;2023-09-30T12:38:08;11.20;;;6.47;;
3487;SDS011;38546;48.170;11.724;2023-09-30T12:40:57;12.57;;;7.00;;
3487;SDS011;38546;48.170;11.724;2023-09-30T12:43:47;12.17;;;5.67;;
3487;SDS011;38546;48.170;11.724;2023-09-30T12:46:36;14.30;;;6.47;;
3487;SDS011;38546;48.170;11.724;2023-09-30T12:49:27;24.47;;;9.17;;
3487;SDS011;38546;48.170;11.724;2023-09-30T12:52:16;23.63;;;10.83;;
3487;SDS011;38546;48.170;11.724;2023-09-30T12:55:06;19.93;;;10.10;;
3487;SDS011;38546;48.170;11.724;2023-09-30T12:57:56;22.07;;;8.40;;
3487;SDS011;38546;48.170;11.724;2023-09-30T13:00:46;21.83;;;10.10;;
3487;SDS011;38546;48.170;11.724;2023-09-30T13:03:36;16.73;;;7.90;;
3487;SDS011;38546;48.170;11.724;2023-09-30T13:06:25;17.37;;;8.40;;
3487;SDS011;38546;48.170;11.724;2023-09-30T13:09:14;24.30;;;9.77;;
3487;SDS011;38546;48.170;11.724;2023-09-30T13:12:04;15.20;;;8.53;;
3487;SDS011;38546;48.170;11.724;2023-09-30T13:14:55;15.47;;;6.40;;
3487;SDS011;38546;48.170;11.724;2023-09-30T13:17:44;13.57;;;7.33;;
3487;SDS011;38546;48.170;11.724;2023-09-30T13:20:34;15.13;;;6.70;;
3487;SDS011;38546;48.170;11.724;2023-09-30T13:23:23;14.80;;;7.90;;
3487;SDS011;38546;48.170;11.724;2023-09-30T13:26:13;17.17;;;7.57;;
3487;SDS011;38546;48.170;11.724;2023-09-30T13:29:02;15.47;;;6.10;;
3487;SDS011;38546;48.170;11.724;2023-09-30T13:31:53;14.73;;;7.90;;
3487;SDS011;38546;48.170;11.724;2023-09-30T13:34:42;12.67;;;7.13;;
3487;SDS011;38546;48.170;11.724;2023-09-30T13:37:31;18.20;;;7.83;;
3487;SDS011;38546;48.170;11.724;2023-09-30T13:40:22;15.77;;;6.17;;
3487;SDS011;38546;48.170;11.724;2023-09-30T13:43:11;13.40;;;5.83;;
3487;SDS011;38546;48.170;11.724;2023-09-30T13:46:04;13.37;;;6.67;;
3487;SDS011;38546;48.170;11.724;2023-09-30T13:48:55;12.73;;;6.83;;
3487;SDS011;38546;48.170;11.724;2023-09-30T13:51:44;16.50;;;7.30;;
3487;SDS011;38546;48.170;11.724;2023-09-30T13:54:34;16.03;;;7.47;;
3487;SDS011;38546;48.170;11.724;2023-09-30T13:57:23;17.00;;;8.30;;
3487;SDS011;38546;48.170;11.724;2023-09-30T14:00:12;16.80;;;7.73;;
3487;SDS011;38546;48.170;11.724;2023-09-30T14:03:03;15.40;;;7.63;;
3487;SDS011;38546;48.170;11.724;2023-09-30T14:05:53;12.50;;;7.70;;
3487;SDS011;38546;48.170;11.724;2023-09-30T14:08:43;14.53;;;7.27;;
3487;SDS011;38546;48.170;11.724;2023-09-30T14:11:33;13.80;;;6.67;;
3487;SDS011;38546;48.170;11.724;2023-09-30T14:14:22;14.07;;;7.27;;
3487;SDS011;38546;48.170;11.724;2023-09-30T14:17:12;14.00;;;7.57;;
3487;SDS011;38546;48.170;11.724;2023-09-30T14:20:03;12.07;;;6.60;;
3487;SDS011;38546;48.170;11.724;2023-09-30T14:22:54;13.37;;;7.30;;
3487;SDS011;38546;48.170;11.724;2023-09-30T14:25:43;18.07;;;7.80;;
3487;SDS011;38546;48.170;11.724;2023-09-30T14:28:33;14.40;;;7.10;;
3487;SDS011;38546;48.170;11.724;2023-09-30T14:31:22;13.93;;;6.80;;
3487;SDS011;38546;48.170;11.724;2023-09-30T14:34:12;13.17;;;6.87;;
3487;SDS011;38546;48.170;11.724;2023-09-30T14:37:04;19.70;;;7.77;;
3487;SDS011;38546;48.170;11.724;2023-09-30T14:39:54;19.03;;;6.73;;
3487;SDS011;38546;48.170;11.724;2023-09-30T14:42:44;14.70;;;7.43;;
3487;SDS011;38546;48.170;11.724;2023-09-30T14:45:39;12.30;;;7.37;;
3487;SDS011;38546;48.170;11.724;2023-09-30T14:48:28;15.13;;;6.70;;
3487;SDS011;38546;48.170;11.724;2023-09-30T14:51:18;17.13;;;7.83;;
3487;SDS011;38546;48.170;11.724;2023-09-30T14:54:09;11.70;;;7.20;;
3487;SDS011;38546;48.170;11.724;2023-09-30T14:56:58;18.57;;;8.20;;
3487;SDS011;38546;48.170;11.724;2023-09-30T14:59:48;16.20;;;8.40;;
3487;SDS011;38546;48.170;11.724;2023-09-30T15:02:37;15.50;;;7.27;;
3487;SDS011;38546;48.170;11.724;2023-09-30T15:05:29;15.27;;;7.10;;
3487;SDS011;38546;48.170;11.724;2023-09-30T15:08:18;15.30;;;7.73;;
3487;SDS011;38546;48.170;11.724;2023-09-30T15:11:12;19.63;;;8.43;;
3487;SDS011;38546;48.170;11.724;2023-09-30T15:14:05;14.20;;;7.50;;
3487;SDS011;38546;48.170;11.724;2023-09-30T15:16:56;18.90;;;7.77;;
3487;SDS011;38546;48.170;11.724;2023-09-30T15:19:46;17.20;;;7.93;;
3487;SDS011;38546;48.170;11.724;2023-09-30T15:22:35;19.63;;;8.70;;
3487;SDS011;38546;48.170;11.724;2023-09-30T15:25:25;12.30;;;6.90;;
3487;SDS011;38546;48.170;11.724;2023-09-30T15:28:14;17.00;;;8.17;;
3487;SDS011;38546;48.170;11.724;2023-09-30T15:31:04;17.70;;;7.70;;
3487;SDS011;38546;48.170;11.724;2023-09-30T15:33:54;14.07;;;7.30;;
3487;SDS011;38546;48.170;11.724;2023-09-30T15:36:43;20.03;;;8.37;;
3487;SDS011;38546;48.170;11.724;2023-09-30T15:39:40;15.80;;;7.50;;
3487;SDS011;38546;48.170;11.724;2023-09-30T15:42:30;19.80;;;8.70;;
3487;SDS011;38546;48.170;11.724;2023-09-30T15:45:20;15.10;;;8.07;;
3487;SDS011;38546;48.170;11.724;2023-09-30T15:48:10;14.93;;;7.30;;
3487;SDS011;38546;48.170;11.724;2023-09-30T15:51:00;21.47;;;8.37;;
3487;SDS011;38546;48.170;11.724;2023-09-30T15:53:50;15.40;;;7.67;;
3487;SDS011;38546;48.170;11.724;2023-09-30T15:56:40;13.20;;;7.20;;
3487;SDS011;38546;48.170;11.724;2023-09-30T15:59:30;17.23;;;7.80;;
3487;SDS011;38546;48.170;11.724;2023-09-30T16:02:19;16.80;;;6.83;;
3487;SDS011;38546;48.170;11.724;2023-09-30T16:05:08;14.90;;;6.97;;
3487;SDS011;38546;48.170;11.724;2023-09-30T16:07:57;17.23;;;7.70;;
3487;SDS011;38546;48.170;11.724;2023-09-30T16:10:46;12.80;;;6.17;;
3487;SDS011;38546;48.170;11.724;2023-09-30T16:13:36;16.40;;;7.43;;
3487;SDS011;38546;48.170;11.724;2023-09-30T16:16:25;14.53;;;6.17;;
3487;SDS011;38546;48.170;11.724;2023-09-30T16:19:14;17.70;;;7.50;;
3487;SDS011;38546;48.170;11.724;2023-09-30T16:22:03;14.67;;;7.50;;
3487;SDS011;38546;48.170;11.724;2023-09-30T16:24:54;20.00;;;7.70;;
3487;SDS011;38546;48.170;11.724;2023-09-30T16:27:43;17.30;;;7.33;;
3487;SDS011;38546;48.170;11.724;2023-09-30T16:30:33;13.50;;;6.90;;
3487;SDS011;38546;48.170;11.724;2023-09-30T16:33:23;13.60;;;6.90;;
3487;SDS011;38546;48.170;11.724;2023-09-30T16:36:13;17.90;;;7.93;;
3487;SDS011;38546;48.170;11.724;2023-09-30T16:39:03;14.97;;;6.90;;
3487;SDS011;38546;48.170;11.724;2023-09-30T16:41:53;17.20;;;7.97;;
3487;SDS011;38546;48.170;11.724;2023-09-30T16:44:42;16.47;;;7.50;;
3487;SDS011;38546;48.170;11.724;2023-09-30T16:47:31;16.90;;;7.03;;
3487;SDS011;38546;48.170;11.724;2023-09-30T16:50:21;14.20;;;6.80;;
3487;SDS011;38546;48.170;11.724;2023-09-30T16:53:10;12.13;;;6.60;;